AirNav   Everest Fuels
 
 1300 users online  

24MA Barre-Bassett Heliport
Barre, Massachusetts, USA

GOING TO BARRE?


FAA INFORMATION EFFECTIVE 05 DECEMBER 2019

Location

FAA Identifier: 24MA
Lat/Long: 42-26-09.3230N 072-05-48.2820W
42-26.155383N 072-05.804700W
42.4359231,-72.0967450
(estimated)
Elevation: 900 ft. / 274 m (estimated)
Variation: 15W (1990)
From city: 5 miles N of BARRE, MA
Time zone: UTC -5 (UTC -4 during Daylight Saving Time)
Zip code: 01005

Heliport Operations

Heliport use: Private use. Permission required prior to landing
Activation date: 02/1993
Control tower: no
ARTCC: BOSTON CENTER
FSS: BRIDGEPORT FLIGHT SERVICE STATION
Attendance: UNATNDD
Wind indicator: yes
Segmented circle: no

Heliport Communications

WX ASOS at ORE (12 nm NW): 135.675 (978-544-6774)
WX ASOS at ORH (14 nm SE): PHONE 508-795-7546
WX ASOS at FIT (17 nm NE): 135.175 (978-343-9121)

Nearby radio navigation aids

VOR radial/distance  VOR name  Freq  Var
GDMr208/6.8GARDNER VOR/DME110.6014W
EENr172/23.2KEENE VORTAC109.4014W
PUTr353/30.9PUTNAM VOR/DME117.4014W
BAFr073/32.0BARNES VORTAC113.0014W
CTRr090/38.8CHESTER VOR/DME115.1013W

Heliport Services

Runway Information

Helipad H1

Dimensions: 100 x 100 ft. / 30 x 30 m
Surface: turf
Traffic pattern: leftleft

Heliport Ownership and Management from official FAA records

Ownership: Privately-owned
Owner: JOSEPH E BASSETT
CHRISTIAN HILL
BARRE, MA 01005
Phone 508-355-4954
Manager: JOSEPH E BASSETT
CHRISTIAN HILL
BARRE, MA 01005
Phone 508-355-2842

Heliport Operational Statistics

Aircraft based on the field: 1
Helicopters: 1
    

Additional Remarks

A52-H1 55 FT BLDG 120 FT SOUTH.
FOR CD CTC BOSTON ARTCC AT 603-879-6859.

Instrument Procedures

There are no published instrument procedures at 24MA.

Some nearby airports with instrument procedures:

KGDM - Gardner Municipal Airport (8 nm NE)
KORE - Orange Municipal Airport (12 nm NW)
KORH - Worcester Regional Airport (14 nm SE)
KFIT - Fitchburg Municipal Airport (17 nm NE)
3B0 - Southbridge Municipal Airport (20 nm S)
 
Loc | Ops | Rwys | IFR | FBO | Links
Com | Nav | Svcs | Stats | Notes
Area around 24MA (Barre-Bassett Heliport)
 
Road maps at: MapQuest Bing Google
 
Aerial photo
No photo
 
Sectional chart

 
Airport distance calculator
Flying to Barre-Bassett Heliport? Find the distance to fly.

From to 24MA

Sunrise and sunset
Times for 06-Dec-2019
 Local
(UTC-5)
 Zulu
(UTC)
Morning civil twilight06:3311:33
Sunrise07:0412:04
Sunset16:1521:15
Evening civil twilight16:4621:46

Current date and time
Zulu (UTC)  06-Dec-2019 21:46:24
Local (UTC-5)  06-Dec-2019 16:46:24
 
METAR
KORE 
11nm NW 
062142Z AUTO 31004KT 4SM -SN BR SCT007 OVC041 M01/M03 A2991 RMK AO2 UPB10E18SNE08B18 P0001 T10111028
KORH 
14nm SE 
062102Z 18003KT 5SM -SN BR OVC037 M02/M02 A2989 RMK AO2 P0000 T10171022
KFIT 
17nm NE 
061824Z AUTO 15005KT 3/4SM -SN BR OVC021 M01/M03 A2997 RMK AO2 P0000 T10111033
KAFN 
22nm N 
062121Z AUTO 00000KT 2 1/2SM -SN BR OVC011 M02/M04 A2988 RMK AO2 P0000 T10221039
TAF
KORH 
14nm SE 
061745Z 0618/0718 21009KT 3SM -SN OVC035 FM061900 22007KT 1SM -SN OVC015 FM062100 22009KT 3SM -SN OVC015 FM062300 24007KT 5SM BR VCSH OVC025 FM070100 27007KT P6SM BKN040 FM070300 31010G18KT P6SM SCT150
NOTAMs
Click for the latest NOTAMs
NOTAMs are issued by the DoD/FAA and will open in a separate window not controlled by AirNav.

 

 
 

Would you like to see your business listed on this page?

 If your business provides an interesting product or service to pilots, flight crews, aircraft, or users of the Barre-Bassett Heliport, you should consider listing it here.  To start the listing process, click on the button below
 
Add a business
 

Other Pages about Barre-Bassett Heliport

Update a link
 
Copyright © AirNav, LLC. All rights reserved. Privacy Policy  Contact